Dades meteomassalio
Diari Summary for Juny 30, 2017 Units:  English    Metric   Both
« Previous Day
Next Day »
Diari Semanal Mensual Anual Personalitzat
  Maxima: Minima: Mijana:
Temperatura: TemperatureC °F 12.5 °F 19 °F
Rosada: DewpointC °F 3.4 °F 7.3 °F
Humitat: Humidity % 35 % 47 %
Velocitat del vent: WindSpeedKMH mph 0.0 mph 20.3 mph
Racha vent: WindSpeedGustKMH mph - -
Vent:- - NW
Pressio: PressurehPa in 1010.0 in -
Pluja: 0.0 in    
Historical Graphs
 
 
Tabular Data for Juny 30, 2017
Time Temperature Dew Point Pressure Wind Wind Speed Wind Gust Humidity Rainfall Rate (Hourly) solar Conditions
TemperatureC °F DewpointC °F PressurehPa in Calm     Humidity % HourlyPrecipMM in SolarRadiationWatts/m^2 W/m2 Conditions
00:04 19.3 °F 3.5 °F 1010.0 in Calm     35 % 0.0 in 0.0 W/m2 CLR
00:09 19.3 °F 3.5 °F 1010.4 in WNW 3.2 mph 3.2 mph 35 % 0.0 in 0.0 W/m2 CLR
00:14 19.2 °F 3.4 °F 1010.4 in WNW 5.6 mph 5.6 mph 35 % 0.0 in 0.0 W/m2 CLR
00:19 19.1 °F 3.6 °F 1010.4 in WNW 3.7 mph 3.7 mph 36 % 0.0 in 0.0 W/m2 CLR
00:24 18.8 °F 3.4 °F 1010.4 in WNW 4.8 mph 4.8 mph 36 % 0.0 in 0.0 W/m2 CLR
00:29 18.8 °F 3.4 °F 1010.4 in WNW 5.6 mph 5.6 mph 36 % 0.0 in 0.0 W/m2 CLR
00:34 18.8 °F 3.4 °F 1010.4 in NNW 4.8 mph 4.8 mph 36 % 0.0 in 0.0 W/m2 CLR
00:39 18.8 °F 3.4 °F 1010.4 in NW 13.0 mph 13.0 mph 36 % 0.0 in 0.0 W/m2 CLR
00:44 18.6 °F 3.6 °F 1010.4 in NW 14.8 mph 14.8 mph 37 % 0.0 in 0.0 W/m2 CLR
00:45 18.7 °F 3.7 °F 1010.4 in NNW 18.5 mph 18.5 mph 37 % 0.0 in 0.0 W/m2 CLR
00:50 19.0 °F 3.9 °F 1010.4 in North 16.1 mph 16.1 mph 37 % 0.0 in 0.0 W/m2 CLR
00:55 19.1 °F 4.4 °F 1010.4 in NW 13.0 mph 13.0 mph 38 % 0.0 in 0.0 W/m2 CLR
01:00 18.9 °F 4.7 °F 1010.7 in North 16.7 mph 16.7 mph 39 % 0.0 in 0.0 W/m2 CLR
01:05 18.8 °F 4.9 °F 1010.7 in NNW 9.7 mph 9.7 mph 40 % 0.0 in 0.0 W/m2 CLR
01:10 18.6 °F 5.1 °F 1010.7 in NNW 9.3 mph 9.3 mph 41 % 0.0 in 0.0 W/m2 CLR
01:15 18.5 °F 5.3 °F 1011.1 in Calm     42 % 0.0 in 0.0 W/m2 CLR
01:20 18.2 °F 5.1 °F 1011.1 in WNW 8.0 mph 8.0 mph 42 % 0.0 in 0.0 W/m2 CLR
01:21 18.2 °F 5.1 °F 1011.1 in WNW 11.1 mph 11.1 mph 42 % 0.0 in 0.0 W/m2 CLR
01:26 17.7 °F 5.3 °F 1011.4 in NW 18.5 mph 18.5 mph 44 % 0.0 in 0.0 W/m2 CLR
01:31 17.7 °F 5.6 °F 1011.4 in NW 16.1 mph 16.1 mph 45 % 0.0 in 0.0 W/m2 CLR
01:36 17.8 °F 5.7 °F 1011.4 in NW 14.8 mph 14.8 mph 45 % 0.0 in 0.0 W/m2 CLR
01:41 17.9 °F 6.1 °F 1011.4 in NNW 11.1 mph 11.1 mph 46 % 0.0 in 0.0 W/m2 CLR
01:46 17.8 °F 6.3 °F 1011.7 in NW 14.8 mph 14.8 mph 47 % 0.0 in 0.0 W/m2 CLR
01:51 17.7 °F 6.3 °F 1011.7 in NW 16.7 mph 16.7 mph 47 % 0.0 in 0.0 W/m2 CLR
01:56 17.7 °F 6.5 °F 1012.1 in NW 18.5 mph 18.5 mph 48 % 0.0 in 0.0 W/m2 CLR
02:01 17.4 °F 6.6 °F 1012.1 in NW 16.7 mph 16.7 mph 49 % 0.0 in 0.0 W/m2 CLR
02:06 17.3 °F 6.4 °F 1012.1 in NW 14.5 mph 14.5 mph 49 % 0.0 in 0.0 W/m2 CLR
02:11 17.1 °F 6.3 °F 1012.4 in WNW 11.1 mph 11.1 mph 49 % 0.0 in 0.0 W/m2 CLR
02:16 17.0 °F 6.5 °F 1012.4 in NW 20.4 mph 20.4 mph 50 % 0.0 in 0.0 W/m2 CLR
02:21 17.1 °F 7.2 °F 1012.4 in NNW 22.5 mph 22.5 mph 52 % 0.0 in 0.0 W/m2 CLR
02:26 17.2 °F 7.3 °F 1012.4 in NW 24.1 mph 24.1 mph 52 % 0.0 in 0.0 W/m2 CLR
02:31 17.2 °F 7.6 °F 1012.4 in NW 22.2 mph 22.2 mph 53 % 0.0 in 0.0 W/m2 CLR
02:36 17.1 °F 7.4 °F 1012.4 in NW 24.1 mph 24.1 mph 53 % 0.0 in 0.0 W/m2 CLR
02:41 17.1 °F 7.4 °F 1012.4 in NW 18.5 mph 18.5 mph 53 % 0.0 in 0.0 W/m2 CLR
02:46 16.9 °F 7.6 °F 1012.4 in NNW 18.5 mph 18.5 mph 54 % 0.0 in 0.0 W/m2 CLR
02:51 16.8 °F 7.7 °F 1012.8 in NW 18.5 mph 18.5 mph 55 % 0.0 in 0.0 W/m2 CLR
02:56 16.8 °F 7.7 °F 1012.8 in Calm     55 % 0.0 in 0.0 W/m2 CLR
03:01 16.6 °F 7.5 °F 1012.8 in Calm     55 % 0.0 in 0.0 W/m2 CLR
03:06 16.5 °F 7.4 °F 1012.8 in Calm     55 % 0.0 in 0.0 W/m2 CLR
03:11 16.4 °F 7.6 °F 1012.8 in Calm     56 % 0.0 in 0.0 W/m2 CLR
03:16 16.3 °F 7.5 °F 1012.8 in Calm     56 % 0.0 in 0.0 W/m2 CLR
03:21 16.2 °F 7.4 °F 1012.8 in Calm     56 % 0.0 in 0.0 W/m2 CLR
03:26 16.1 °F 7.6 °F 1012.8 in Calm     57 % 0.0 in 0.0 W/m2 CLR
03:31 15.9 °F 7.4 °F 1013.1 in Calm     57 % 0.0 in 0.0 W/m2 CLR
03:36 15.8 °F 7.5 °F 1013.1 in Calm     58 % 0.0 in 0.0 W/m2 CLR
03:41 15.6 °F 7.4 °F 1013.1 in Calm     58 % 0.0 in 0.0 W/m2 CLR
03:46 15.5 °F 7.5 °F 1013.1 in Calm     59 % 0.0 in 0.0 W/m2 CLR
03:51 15.6 °F 7.6 °F 1012.8 in West 4.8 mph 4.8 mph 59 % 0.0 in 0.0 W/m2 CLR
03:56 15.5 °F 7.5 °F 1013.1 in West 9.7 mph 9.7 mph 59 % 0.0 in 0.0 W/m2 CLR
04:01 15.4 °F 7.4 °F 1012.8 in West 7.4 mph 7.4 mph 59 % 0.0 in 0.0 W/m2 CLR
04:06 15.2 °F 7.3 °F 1013.1 in WSW 11.1 mph 11.1 mph 59 % 0.0 in 0.0 W/m2 CLR
04:11 15.1 °F 7.4 °F 1012.8 in WSW 9.7 mph 9.7 mph 60 % 0.0 in 0.0 W/m2 CLR
04:16 15.0 °F 7.6 °F 1012.8 in WSW 13.0 mph 13.0 mph 61 % 0.0 in 0.0 W/m2 CLR
04:22 14.9 °F 7.7 °F 1012.8 in West 14.8 mph 14.8 mph 62 % 0.0 in 0.0 W/m2 CLR
04:27 15.0 °F 7.8 °F 1012.8 in WSW 11.1 mph 11.1 mph 62 % 0.0 in 0.0 W/m2 CLR
04:32 14.9 °F 7.7 °F 1012.8 in West 9.7 mph 9.7 mph 62 % 0.0 in 0.0 W/m2 CLR
04:37 14.8 °F 7.8 °F 1012.8 in WSW 5.6 mph 5.6 mph 63 % 0.0 in 0.0 W/m2 CLR
04:42 14.7 °F 7.7 °F 1012.8 in West 5.6 mph 5.6 mph 63 % 0.0 in 0.0 W/m2 CLR
04:47 14.6 °F 7.8 °F 1012.8 in WSW 9.3 mph 9.3 mph 64 % 0.0 in 0.0 W/m2 CLR
04:52 14.4 °F 7.7 °F 1012.8 in West 8.0 mph 8.0 mph 64 % 0.0 in 0.0 W/m2 CLR
04:57 14.4 °F 8.1 °F 1012.8 in West 14.8 mph 14.8 mph 66 % 0.0 in 0.0 W/m2 CLR
05:02 14.6 °F 8.1 °F 1012.8 in West 14.8 mph 14.8 mph 65 % 0.0 in 0.0 W/m2 CLR
05:07 14.7 °F 8.2 °F 1012.8 in West 14.8 mph 14.8 mph 65 % 0.0 in 0.0 W/m2 CLR
05:12 14.7 °F 8.2 °F 1012.8 in West 13.0 mph 13.0 mph 65 % 0.0 in 0.0 W/m2 CLR
05:17 14.8 °F 8.1 °F 1012.8 in West 14.8 mph 14.8 mph 64 % 0.0 in 0.0 W/m2 CLR
05:22 14.9 °F 7.9 °F 1012.8 in West 11.1 mph 11.1 mph 63 % 0.0 in 0.0 W/m2 CLR
05:27 14.9 °F 7.7 °F 1012.8 in WNW 5.6 mph 5.6 mph 62 % 0.0 in 0.0 W/m2 CLR
05:32 14.8 °F 7.6 °F 1013.1 in Calm     62 % 0.0 in 0.0 W/m2 CLR
05:33 14.8 °F 7.6 °F 1013.1 in Calm     62 % 0.0 in 0.0 W/m2 CLR
05:38 14.5 °F 7.8 °F 1013.1 in Calm     64 % 0.0 in 0.0 W/m2 CLR
05:43 14.2 °F 7.7 °F 1012.8 in Calm     65 % 0.0 in 0.0 W/m2 CLR
05:48 13.9 °F 7.7 °F 1012.8 in Calm     66 % 0.0 in 0.0 W/m2 CLR
05:53 13.7 °F 7.7 °F 1013.1 in West 7.4 mph 7.4 mph 67 % 0.0 in 0.0 W/m2 CLR
05:58 13.7 °F 7.7 °F 1013.1 in West 9.3 mph 9.3 mph 67 % 0.0 in 0.0 W/m2 CLR
06:03 13.8 °F 7.6 °F 1013.1 in WSW 9.3 mph 9.3 mph 66 % 0.0 in 0.0 W/m2 CLR
06:08 13.8 °F 7.6 °F 1013.1 in WSW 7.4 mph 7.4 mph 66 % 0.0 in 0.0 W/m2 CLR
06:13 13.7 °F 7.4 °F 1013.1 in SW 3.2 mph 3.2 mph 66 % 0.0 in 0.0 W/m2 CLR
06:18 13.2 °F 7.2 °F 1013.1 in WSW 7.4 mph 7.4 mph 67 % 0.0 in 0.0 W/m2 CLR
06:23 12.7 °F 7.2 °F 1013.1 in SW 9.7 mph 9.7 mph 69 % 0.0 in 0.0 W/m2 OVC
06:29 12.5 °F 7.2 °F 1013.4 in WSW 7.4 mph 7.4 mph 70 % 0.0 in 0.0 W/m2 OVC
06:34 12.6 °F 7.4 °F 1013.4 in WSW 7.4 mph 7.4 mph 71 % 0.0 in 5.0 W/m2 OVC
06:39 12.8 °F 7.7 °F 1013.4 in West 9.7 mph 9.7 mph 71 % 0.0 in 7.0 W/m2 BKN
06:44 13.3 °F 7.9 °F 1013.4 in West 12.9 mph 12.9 mph 70 % 0.0 in 9.0 W/m2 BKN
06:49 13.7 °F 7.9 °F 1013.4 in WSW 13.0 mph 13.0 mph 68 % 0.0 in 11.0 W/m2 BKN
06:54 13.6 °F 7.6 °F 1013.8 in WSW 11.3 mph 11.3 mph 67 % 0.0 in 12.0 W/m2 BKN
06:59 13.8 °F 7.8 °F 1013.8 in West 18.5 mph 18.5 mph 67 % 0.0 in 14.0 W/m2 BKN
07:04 14.0 °F 7.7 °F 1013.8 in West 14.5 mph 14.5 mph 66 % 0.0 in 19.0 W/m2 BKN
07:09 14.3 °F 7.8 °F 1013.8 in SW 13.0 mph 13.0 mph 65 % 0.0 in 26.0 W/m2 BKN
07:14 14.7 °F 7.4 °F 1013.8 in West 14.8 mph 14.8 mph 62 % 0.0 in 39.0 W/m2 BKN
07:19 15.0 °F 7.6 °F 1013.8 in WNW 16.7 mph 16.7 mph 61 % 0.0 in 47.0 W/m2 SCT
07:24 15.1 °F 7.7 °F 1013.8 in West 18.5 mph 18.5 mph 61 % 0.0 in 62.0 W/m2 SCT
07:29 15.3 °F 7.3 °F 1014.1 in WNW 14.8 mph 14.8 mph 59 % 0.0 in 74.0 W/m2 FEW
07:34 15.5 °F 7.3 °F 1014.1 in WSW 11.3 mph 11.3 mph 58 % 0.0 in 86.0 W/m2 FEW
07:39 15.7 °F 7.2 °F 1014.1 in West 16.7 mph 16.7 mph 57 % 0.0 in 100.0 W/m2 FEW
07:44 15.8 °F 7.1 °F 1014.1 in WSW 14.8 mph 14.8 mph 56 % 0.0 in 120.0 W/m2 CLR
07:49 16.0 °F 7.2 °F 1014.1 in West 5.6 mph 5.6 mph 56 % 0.0 in 135.0 W/m2 CLR
07:54 16.1 °F 7.1 °F 1014.4 in WSW 16.7 mph 16.7 mph 55 % 0.0 in 151.0 W/m2 CLR
07:59 16.2 °F 6.9 °F 1014.4 in West 18.5 mph 18.5 mph 54 % 0.0 in 167.0 W/m2 CLR
08:04 16.2 °F 6.9 °F 1014.4 in West 16.7 mph 16.7 mph 54 % 0.0 in 185.0 W/m2 CLR
08:09 16.3 °F 6.9 °F 1014.4 in West 16.7 mph 16.7 mph 54 % 0.0 in 204.0 W/m2 CLR
08:14 16.3 °F 7.0 °F 1014.4 in West 14.8 mph 14.8 mph 54 % 0.0 in 220.0 W/m2 CLR
08:19 16.4 °F 6.8 °F 1014.4 in West 13.0 mph 13.0 mph 53 % 0.0 in 234.0 W/m2 CLR
08:24 16.6 °F 7.0 °F 1014.8 in West 7.4 mph 7.4 mph 53 % 0.0 in 248.0 W/m2 CLR
08:29 16.7 °F 7.1 °F 1014.8 in NW 13.0 mph 13.0 mph 53 % 0.0 in 265.0 W/m2 CLR
08:34 16.8 °F 6.9 °F 1014.8 in WNW 18.5 mph 18.5 mph 52 % 0.0 in 281.0 W/m2 CLR
08:39 16.9 °F 6.9 °F 1014.8 in West 19.3 mph 19.3 mph 52 % 0.0 in 295.0 W/m2 CLR
08:44 16.9 °F 7.0 °F 1014.8 in WNW 18.5 mph 18.5 mph 52 % 0.0 in 311.0 W/m2 CLR
08:49 17.2 °F 6.9 °F 1014.8 in NW 18.5 mph 18.5 mph 51 % 0.0 in 327.0 W/m2 CLR
08:54 17.4 °F 6.8 °F 1015.1 in NW 20.4 mph 20.4 mph 50 % 0.0 in 341.0 W/m2 CLR
08:59 17.3 °F 6.8 °F 1015.1 in NW 19.3 mph 19.3 mph 50 % 0.0 in 359.0 W/m2 CLR
09:04 17.4 °F 6.9 °F 1015.1 in WNW 22.2 mph 22.2 mph 50 % 0.0 in 374.0 W/m2 CLR
09:09 17.4 °F 6.9 °F 1015.5 in West 14.8 mph 14.8 mph 50 % 0.0 in 387.0 W/m2 CLR
09:14 17.7 °F 7.2 °F 1015.1 in NW 27.8 mph 27.8 mph 50 % 0.0 in 404.0 W/m2 CLR
09:19 17.6 °F 7.1 °F 1015.5 in WNW 22.2 mph 22.2 mph 50 % 0.0 in 420.0 W/m2 CLR
09:24 17.7 °F 7.2 °F 1015.5 in NW 16.7 mph 16.7 mph 50 % 0.0 in 434.0 W/m2 CLR
09:29 17.8 °F 6.9 °F 1015.5 in NW 16.7 mph 16.7 mph 49 % 0.0 in 448.0 W/m2 CLR
09:39 18.1 °F 6.6 °F 1015.1 in West 25.9 mph 25.9 mph 47 % 0.0 in 483.0 W/m2 CLR
09:44 18.0 °F 6.8 °F 1015.1 in WNW 16.7 mph 16.7 mph 48 % 0.0 in 497.0 W/m2 CLR
09:49 18.2 °F 6.9 °F 1015.1 in NW 27.8 mph 27.8 mph 48 % 0.0 in 512.0 W/m2 CLR
09:54 18.4 °F 6.9 °F 1015.1 in WNW 22.2 mph 22.2 mph 47 % 0.0 in 526.0 W/m2 CLR
09:59 18.4 °F 6.9 °F 1015.1 in NW 14.8 mph 14.8 mph 47 % 0.0 in 540.0 W/m2 CLR
10:04 18.6 °F 6.8 °F 1015.1 in NNW 18.5 mph 18.5 mph 46 % 0.0 in 557.0 W/m2 CLR
10:09 19.0 °F 6.8 °F 1015.1 in NW 18.5 mph 18.5 mph 45 % 0.0 in 573.0 W/m2 CLR
10:14 19.3 °F 6.7 °F 1015.1 in WNW 22.2 mph 22.2 mph 44 % 0.0 in 587.0 W/m2 CLR
10:19 19.2 °F 6.6 °F 1015.1 in NW 30.6 mph 30.6 mph 44 % 0.0 in 599.0 W/m2 CLR
10:24 18.9 °F 6.4 °F 1015.1 in NNW 20.4 mph 20.4 mph 44 % 0.0 in 613.0 W/m2 CLR
10:29 19.1 °F 6.5 °F 1015.1 in NNW 19.3 mph 19.3 mph 44 % 0.0 in 629.0 W/m2 CLR
10:34 19.4 °F 6.8 °F 1015.1 in NNW 14.8 mph 14.8 mph 44 % 0.0 in 643.0 W/m2 CLR
10:39 19.3 °F 6.1 °F 1015.1 in NNW 18.5 mph 18.5 mph 42 % 0.0 in 656.0 W/m2 CLR
10:44 19.4 °F 6.1 °F 1015.1 in NW 18.5 mph 18.5 mph 42 % 0.0 in 670.0 W/m2 CLR
10:49 19.5 °F 6.2 °F 1015.1 in West 20.4 mph 20.4 mph 42 % 0.0 in 684.0 W/m2 CLR
10:54 19.6 °F 6.0 °F 1015.1 in NW 24.1 mph 24.1 mph 41 % 0.0 in 694.0 W/m2 CLR
10:59 19.9 °F 6.2 °F 1015.1 in WNW 20.4 mph 20.4 mph 41 % 0.0 in 707.0 W/m2 CLR
11:04 19.9 °F 6.3 °F 1015.1 in NNW 22.2 mph 22.2 mph 41 % 0.0 in 721.0 W/m2 CLR
11:05 19.9 °F 6.3 °F 1015.1 in NW 22.2 mph 22.2 mph 41 % 0.0 in 722.0 W/m2 CLR
11:10 20.1 °F 6.1 °F 1015.1 in NNW 25.9 mph 25.9 mph 40 % 0.0 in 733.0 W/m2 CLR
11:15 20.1 °F 6.1 °F 1015.1 in WNW 24.1 mph 24.1 mph 40 % 0.0 in 744.0 W/m2 CLR
11:20 19.7 °F 5.7 °F 1015.1 in NW 24.1 mph 24.1 mph 40 % 0.0 in 759.0 W/m2 CLR
11:25 20.1 °F 6.1 °F 1015.1 in WNW 13.0 mph 13.0 mph 40 % 0.0 in 770.0 W/m2 CLR
11:27 20.2 °F 6.1 °F 1015.1 in NW 27.8 mph 27.8 mph 40 % 0.0 in 773.0 W/m2 CLR
11:32 20.3 °F 6.3 °F 1015.1 in NNW 20.9 mph 20.9 mph 40 % 0.0 in 788.0 W/m2 CLR
11:37 20.4 °F 6.3 °F 1015.1 in NNW 31.5 mph 31.5 mph 40 % 0.0 in 807.0 W/m2 CLR
11:42 20.4 °F 6.4 °F 1015.1 in NW 24.1 mph 24.1 mph 40 % 0.0 in 812.0 W/m2 CLR
11:47 20.4 °F 6.4 °F 1015.1 in WNW 18.5 mph 18.5 mph 40 % 0.0 in 842.0 W/m2 CLR
11:52 20.6 °F 6.6 °F 1015.1 in NNW 25.9 mph 25.9 mph 40 % 0.0 in 860.0 W/m2 CLR
11:57 20.9 °F 6.4 °F 1015.1 in North 20.4 mph 20.4 mph 39 % 0.0 in 893.0 W/m2 CLR
12:02 20.8 °F 6.3 °F 1015.1 in NNW 22.2 mph 22.2 mph 39 % 0.0 in 914.0 W/m2 CLR
12:07 20.7 °F 6.3 °F 1015.1 in NNW 31.5 mph 31.5 mph 39 % 0.0 in 114.0 W/m2 CLR
12:13 20.4 °F 6.3 °F 1015.1 in NW 18.5 mph 18.5 mph 40 % 0.0 in 925.0 W/m2 CLR
12:18 20.5 °F 6.4 °F 1015.1 in NNW 17.7 mph 17.7 mph 40 % 0.0 in 267.0 W/m2 CLR
12:23 20.6 °F 6.8 °F 1015.1 in NNW 22.2 mph 22.2 mph 41 % 0.0 in 981.0 W/m2 CLR
12:28 21.1 °F 6.6 °F 1015.1 in NNW 18.5 mph 18.5 mph 39 % 0.0 in 995.0 W/m2 CLR
12:32 21.4 °F 6.5 °F 1015.1 in West 25.9 mph 25.9 mph 38 % 0.0 in 1016.0 W/m2 CLR
12:37 21.1 °F 7.3 °F 1015.1 in NNW 18.5 mph 18.5 mph 41 % 0.0 in 1065.0 W/m2 CLR
12:42 21.2 °F 7.0 °F 1015.1 in WNW 22.5 mph 22.5 mph 40 % 0.0 in 287.0 W/m2 CLR
12:47 21.3 °F 7.1 °F 1015.1 in North 24.1 mph 24.1 mph 40 % 0.0 in 969.0 W/m2 CLR
12:53 21.7 °F 7.5 °F 1015.1 in NW 24.1 mph 24.8 mph 40 % 0.0 in 1004.0 W/m2 CLR
12:58 20.9 °F 6.4 °F 1015.1 in NW 22.2 mph 22.2 mph 39 % 0.0 in 221.0 W/m2 CLR
13:03 20.7 °F 6.3 °F 1015.1 in NW 27.8 mph 27.8 mph 39 % 0.0 in 1058.0 W/m2 CLR
13:08 21.1 °F 6.6 °F 1015.1 in NNW 29.6 mph 29.6 mph 39 % 0.0 in 274.0 W/m2 CLR
13:13 21.2 °F 6.7 °F 1015.1 in NNW 24.1 mph 24.1 mph 39 % 0.0 in 1072.0 W/m2 CLR
13:18 21.3 °F 6.8 °F 1015.1 in NNW 25.9 mph 25.9 mph 39 % 0.0 in 199.0 W/m2 CLR
13:23 21.4 °F 7.3 °F 1015.1 in WNW 27.8 mph 27.8 mph 40 % 0.0 in 990.0 W/m2 CLR
13:28 21.6 °F 7.1 °F 1015.1 in NNW 33.3 mph 33.3 mph 39 % 0.0 in 1090.0 W/m2 CLR
13:33 21.7 °F 7.2 °F 1015.1 in NNW 20.9 mph 20.9 mph 39 % 0.0 in 1132.0 W/m2 CLR
13:38 21.6 °F 6.7 °F 1015.1 in NW 37.0 mph 37.0 mph 38 % 0.0 in 1102.0 W/m2 CLR
13:43 21.8 °F 6.9 °F 1015.1 in WNW 24.1 mph 24.1 mph 38 % 0.0 in 998.0 W/m2 CLR
13:48 22.0 °F 6.6 °F 1015.1 in WNW 24.1 mph 24.1 mph 37 % 0.0 in 207.0 W/m2 CLR
13:53 21.7 °F 6.7 °F 1015.1 in NW 18.5 mph 18.5 mph 38 % 0.0 in 316.0 W/m2 CLR
13:58 21.7 °F 6.8 °F 1015.1 in NW 14.8 mph 14.8 mph 38 % 0.0 in 1095.0 W/m2 CLR
14:03 22.2 °F 7.2 °F 1015.1 in NW 24.1 mph 24.1 mph 38 % 0.0 in 1121.0 W/m2 CLR
14:08 22.4 °F 7.0 °F 1015.1 in North 27.8 mph 27.8 mph 37 % 0.0 in 1137.0 W/m2 CLR
14:13 22.4 °F 7.0 °F 1015.1 in NNW 29.6 mph 29.6 mph 37 % 0.0 in 279.0 W/m2 CLR
14:18 21.9 °F 6.9 °F 1015.1 in North 24.1 mph 24.1 mph 38 % 0.0 in 267.0 W/m2 CLR
14:23 21.9 °F 6.9 °F 1015.1 in NNW 22.5 mph 22.5 mph 38 % 0.0 in 1049.0 W/m2 CLR
14:28 22.4 °F 7.4 °F 1015.1 in North 25.9 mph 25.9 mph 38 % 0.0 in 1157.0 W/m2 CLR
14:33 22.2 °F 7.2 °F 1015.1 in NNW 27.8 mph 27.8 mph 38 % 0.0 in 325.0 W/m2 CLR
14:38 22.5 °F 7.1 °F 1015.1 in NW 24.1 mph 24.1 mph 37 % 0.0 in 1085.0 W/m2 CLR
14:43 22.8 °F 6.9 °F 1015.1 in NW 24.1 mph 24.1 mph 36 % 0.0 in 1027.0 W/m2 CLR
14:48 23.1 °F 7.2 °F 1015.1 in WNW 33.3 mph 33.3 mph 36 % 0.0 in 1123.0 W/m2 CLR
14:53 23.2 °F 7.3 °F 1015.1 in NNW 29.6 mph 29.6 mph 36 % 0.0 in 970.0 W/m2 CLR
14:58 23.2 °F 7.3 °F 1015.1 in NNW 33.3 mph 33.3 mph 36 % 0.0 in 1114.0 W/m2 CLR
15:03 22.8 °F 6.9 °F 1015.1 in WNW 32.2 mph 32.2 mph 36 % 0.0 in 1056.0 W/m2 CLR
15:13 22.8 °F 7.3 °F 1015.1 in WNW 22.2 mph 22.2 mph 37 % 0.0 in 1063.0 W/m2 CLR
15:18 23.0 °F 7.5 °F 1015.1 in NNW 22.2 mph 22.2 mph 37 % 0.0 in 984.0 W/m2 CLR
15:23 22.7 °F 7.6 °F 1015.1 in NNW 35.4 mph 35.4 mph 38 % 0.0 in 1044.0 W/m2 CLR
15:28 22.6 °F 7.2 °F 1015.1 in NNW 42.6 mph 42.6 mph 37 % 0.0 in 311.0 W/m2 CLR
15:33 22.3 °F 7.3 °F 1015.1 in WNW 24.1 mph 24.1 mph 38 % 0.0 in 1120.0 W/m2 CLR
15:38 22.7 °F 7.3 °F 1015.1 in WNW 31.5 mph 31.5 mph 37 % 0.0 in 1063.0 W/m2 CLR
15:43 22.3 °F 7.7 °F 1015.1 in North 25.9 mph 25.9 mph 39 % 0.0 in 1027.0 W/m2 CLR
15:48 22.8 °F 7.7 °F 1014.8 in NNW 25.9 mph 25.9 mph 38 % 0.0 in 949.0 W/m2 CLR
15:53 23.3 °F 7.8 °F 1014.8 in NW 24.1 mph 24.1 mph 37 % 0.0 in 937.0 W/m2 CLR
15:58 22.9 °F 7.4 °F 1014.8 in NNW 20.4 mph 20.4 mph 37 % 0.0 in 940.0 W/m2 CLR
16:03 23.3 °F 7.8 °F 1015.1 in NNW 42.6 mph 42.6 mph 37 % 0.0 in 882.0 W/m2 CLR
16:08 23.2 °F 7.3 °F 1014.8 in North 35.4 mph 35.4 mph 36 % 0.0 in 909.0 W/m2 CLR
16:13 22.4 °F 7.4 °F 1014.8 in North 29.6 mph 29.6 mph 38 % 0.0 in 214.0 W/m2 CLR
16:18 22.4 °F 7.4 °F 1014.8 in WNW 25.9 mph 25.9 mph 38 % 0.0 in 287.0 W/m2 CLR
16:23 22.4 °F 7.8 °F 1015.1 in NNW 40.7 mph 40.7 mph 39 % 0.0 in 311.0 W/m2 CLR
16:28 22.9 °F 7.8 °F 1014.8 in NW 27.8 mph 27.8 mph 38 % 0.0 in 823.0 W/m2 CLR
16:33 23.1 °F 8.0 °F 1014.8 in NNW 31.5 mph 31.5 mph 38 % 0.0 in 858.0 W/m2 CLR
16:38 22.9 °F 7.8 °F 1014.8 in NNW 25.9 mph 25.9 mph 38 % 0.0 in 896.0 W/m2 CLR
16:43 23.1 °F 8.4 °F 1014.8 in NW 31.5 mph 31.5 mph 39 % 0.0 in 900.0 W/m2 CLR
16:48 22.8 °F 7.8 °F 1015.1 in NW 25.7 mph 25.7 mph 38 % 0.0 in 186.0 W/m2 CLR
16:53 23.1 °F 8.0 °F 1014.8 in NNW 27.8 mph 27.8 mph 38 % 0.0 in 868.0 W/m2 CLR
16:58 23.2 °F 8.1 °F 1014.8 in NW 24.1 mph 24.1 mph 38 % 0.0 in 248.0 W/m2 CLR
17:03 23.0 °F 7.9 °F 1014.8 in North 24.1 mph 24.1 mph 38 % 0.0 in 171.0 W/m2 CLR
17:08 22.9 °F 7.9 °F 1014.8 in NW 33.3 mph 33.3 mph 38 % 0.0 in 831.0 W/m2 CLR
17:13 23.4 °F 7.9 °F 1014.8 in NW 38.9 mph 38.9 mph 37 % 0.0 in 758.0 W/m2 CLR
17:18 23.3 °F 7.4 °F 1014.8 in NW 31.5 mph 31.5 mph 36 % 0.0 in 726.0 W/m2 CLR
17:23 23.4 °F 7.5 °F 1014.8 in WNW 33.3 mph 33.3 mph 36 % 0.0 in 687.0 W/m2 CLR
17:28 22.9 °F 7.0 °F 1014.8 in NNW 38.9 mph 38.9 mph 36 % 0.0 in 118.0 W/m2 CLR
17:33 23.1 °F 7.6 °F 1014.8 in NW 27.8 mph 27.8 mph 37 % 0.0 in 691.0 W/m2 CLR
17:38 23.1 °F 7.2 °F 1014.8 in North 24.1 mph 24.1 mph 36 % 0.0 in 109.0 W/m2 CLR
17:43 23.1 °F 7.2 °F 1014.8 in NW 33.3 mph 33.3 mph 36 % 0.0 in 635.0 W/m2 CLR
17:48 23.4 °F 7.5 °F 1014.8 in NNE 30.6 mph 30.6 mph 36 % 0.0 in 624.0 W/m2 CLR
17:53 23.7 °F 7.8 °F 1014.8 in North 44.4 mph 44.4 mph 36 % 0.0 in 664.0 W/m2 CLR
17:58 23.3 °F 7.8 °F 1014.8 in NNW 35.2 mph 35.2 mph 37 % 0.0 in 113.0 W/m2 CLR
18:03 22.9 °F 7.4 °F 1014.8 in NNW 33.8 mph 33.8 mph 37 % 0.0 in 167.0 W/m2 CLR
18:08 23.1 °F 7.2 °F 1014.8 in North 33.3 mph 33.3 mph 36 % 0.0 in 571.0 W/m2 CLR
18:13 23.2 °F 7.7 °F 1014.8 in NNW 27.4 mph 27.4 mph 37 % 0.0 in 540.0 W/m2 CLR
18:18 23.2 °F 7.7 °F 1014.8 in NNW 37.0 mph 37.0 mph 37 % 0.0 in 529.0 W/m2 CLR
18:23 23.4 °F 7.9 °F 1014.8 in NNW 30.6 mph 30.6 mph 37 % 0.0 in 534.0 W/m2 CLR
18:28 23.6 °F 8.0 °F 1014.8 in North 29.6 mph 29.6 mph 37 % 0.0 in 559.0 W/m2 CLR
18:32 23.5 °F 7.9 °F 1014.8 in NW 40.7 mph 40.7 mph 37 % 0.0 in 568.0 W/m2 CLR
18:37 23.1 °F 8.0 °F 1014.8 in NNW 27.4 mph 27.4 mph 38 % 0.0 in 128.0 W/m2 CLR
18:42 23.6 °F 8.4 °F 1014.8 in NNW 31.5 mph 31.5 mph 38 % 0.0 in 487.0 W/m2 CLR
18:47 23.4 °F 7.9 °F 1014.8 in NW 37.0 mph 37.0 mph 37 % 0.0 in 489.0 W/m2 CLR
18:52 23.6 °F 8.0 °F 1014.8 in NW 37.0 mph 37.0 mph 37 % 0.0 in 482.0 W/m2 CLR
18:57 23.4 °F 8.3 °F 1014.8 in NNW 29.6 mph 29.6 mph 38 % 0.0 in 434.0 W/m2 CLR
19:02 23.3 °F 8.2 °F 1014.8 in NNW 27.8 mph 27.8 mph 38 % 0.0 in 404.0 W/m2 CLR
19:07 23.4 °F 8.3 °F 1015.1 in NW 25.9 mph 25.9 mph 38 % 0.0 in 401.0 W/m2 CLR
19:12 23.6 °F 8.4 °F 1015.1 in NNW 33.3 mph 33.3 mph 38 % 0.0 in 387.0 W/m2 CLR
19:17 23.3 °F 8.6 °F 1015.1 in NNW 33.8 mph 33.8 mph 39 % 0.0 in 357.0 W/m2 CLR
19:22 23.1 °F 8.3 °F 1015.1 in NW 35.2 mph 35.2 mph 39 % 0.0 in 345.0 W/m2 CLR
19:27 22.8 °F 8.4 °F 1015.5 in North 40.7 mph 40.7 mph 40 % 0.0 in 318.0 W/m2 CLR
19:32 22.6 °F 8.3 °F 1015.5 in North 31.5 mph 31.5 mph 40 % 0.0 in 297.0 W/m2 CLR
19:37 22.5 °F 8.2 °F 1015.8 in NNW 33.3 mph 33.3 mph 40 % 0.0 in 283.0 W/m2 CLR
19:42 22.6 °F 8.6 °F 1015.5 in NNW 27.4 mph 27.4 mph 41 % 0.0 in 260.0 W/m2 CLR
19:45 22.5 °F 8.6 °F 1015.5 in North 37.0 mph 37.0 mph 41 % 0.0 in 251.0 W/m2 CLR
19:50 22.4 °F 8.5 °F 1015.8 in North 24.1 mph 24.1 mph 41 % 0.0 in 225.0 W/m2 CLR
19:55 22.4 °F 8.9 °F 1015.8 in North 16.7 mph 16.7 mph 42 % 0.0 in 209.0 W/m2 CLR
20:00 22.3 °F 9.1 °F 1015.8 in NNW 33.3 mph 33.3 mph 43 % 0.0 in 197.0 W/m2 CLR
20:05 22.1 °F 8.6 °F 1015.8 in NNW 27.8 mph 27.8 mph 42 % 0.0 in 39.0 W/m2 CLR
20:10 21.8 °F 8.3 °F 1015.8 in NNW 37.0 mph 37.0 mph 42 % 0.0 in 165.0 W/m2 FEW
20:11 21.7 °F 8.6 °F 1015.8 in NNW 35.2 mph 35.2 mph 43 % 0.0 in 165.0 W/m2 FEW
20:16 21.6 °F 8.4 °F 1015.8 in NNW 33.3 mph 33.3 mph 43 % 0.0 in 33.0 W/m2 SCT
20:21 21.3 °F 8.5 °F 1016.1 in North 25.9 mph 25.9 mph 44 % 0.0 in 35.0 W/m2 SCT
20:26 21.2 °F 8.8 °F 1016.1 in NNW 20.4 mph 20.4 mph 45 % 0.0 in 88.0 W/m2 SCT
20:31 21.3 °F 8.8 °F 1016.1 in NW 33.8 mph 33.8 mph 45 % 0.0 in 88.0 W/m2 FEW
20:36 21.3 °F 8.2 °F 1016.1 in NNW 42.6 mph 42.6 mph 43 % 0.0 in 91.0 W/m2 CLR
20:41 21.2 °F 8.4 °F 1016.1 in North 25.9 mph 25.9 mph 44 % 0.0 in 69.0 W/m2 FEW
20:46 21.2 °F 8.8 °F 1016.1 in North 25.7 mph 25.7 mph 45 % 0.0 in 47.0 W/m2 SCT
20:51 21.0 °F 8.9 °F 1016.5 in NNW 24.1 mph 24.1 mph 46 % 0.0 in 23.0 W/m2 BKN
20:56 20.7 °F 8.6 °F 1016.5 in NW 25.9 mph 25.9 mph 46 % 0.0 in 16.0 W/m2 BKN
21:01 20.4 °F 9.0 °F 1016.5 in NNW 25.9 mph 25.9 mph 48 % 0.0 in 12.0 W/m2 BKN
21:06 20.3 °F 9.2 °F 1016.8 in NNW 18.5 mph 18.5 mph 49 % 0.0 in 9.0 W/m2 BKN
21:11 20.1 °F 9.3 °F 1016.8 in North 27.8 mph 27.8 mph 50 % 0.0 in 7.0 W/m2 BKN
21:16 19.9 °F 9.7 °F 1016.8 in North 22.2 mph 22.2 mph 52 % 0.0 in 7.0 W/m2 BKN
21:21 19.8 °F 9.3 °F 1017.2 in North 20.4 mph 20.4 mph 51 % 0.0 in 5.0 W/m2 OVC
21:26 19.6 °F 8.8 °F 1017.2 in NNW 27.8 mph 27.8 mph 50 % 0.0 in 0.0 W/m2 OVC
21:31 19.3 °F 8.3 °F 1017.2 in North 27.8 mph 27.8 mph 49 % 0.0 in 0.0 W/m2 OVC
21:36 19.1 °F 8.7 °F 1017.5 in NNW 29.6 mph 29.6 mph 51 % 0.0 in 0.0 W/m2 OVC
21:41 18.9 °F 8.6 °F 1017.5 in NW 24.1 mph 24.1 mph 51 % 0.0 in 0.0 W/m2 OVC
21:46 18.9 °F 8.8 °F 1017.5 in North 19.3 mph 19.3 mph 52 % 0.0 in 0.0 W/m2 CLR
21:51 18.8 °F 9.0 °F 1017.5 in NNW 18.5 mph 18.5 mph 53 % 0.0 in 0.0 W/m2 CLR
21:56 18.7 °F 8.9 °F 1017.8 in NW 24.1 mph 24.1 mph 53 % 0.0 in 0.0 W/m2 CLR
22:01 18.6 °F 8.8 °F 1017.8 in NW 29.6 mph 29.6 mph 53 % 0.0 in 0.0 W/m2 CLR
22:06 18.5 °F 8.7 °F 1018.2 in WNW 29.0 mph 29.0 mph 53 % 0.0 in 0.0 W/m2 CLR
22:11 18.3 °F 8.6 °F 1018.2 in NNW 32.2 mph 32.2 mph 53 % 0.0 in 0.0 W/m2 CLR
22:16 18.2 °F 8.8 °F 1018.2 in NW 25.9 mph 25.9 mph 54 % 0.0 in 0.0 W/m2 CLR
22:21 18.1 °F 8.7 °F 1018.5 in NNW 35.2 mph 35.2 mph 54 % 0.0 in 0.0 W/m2 CLR
22:26 18.0 °F 8.6 °F 1018.5 in NNW 25.9 mph 25.9 mph 54 % 0.0 in 0.0 W/m2 CLR
22:31 17.9 °F 8.5 °F 1018.5 in NW 25.7 mph 25.7 mph 54 % 0.0 in 0.0 W/m2 CLR
22:36 17.8 °F 8.7 °F 1018.8 in NNW 27.8 mph 27.8 mph 55 % 0.0 in 0.0 W/m2 CLR
22:41 17.8 °F 8.6 °F 1018.8 in NW 25.9 mph 25.9 mph 55 % 0.0 in 0.0 W/m2 CLR
22:46 17.7 °F 8.8 °F 1018.8 in North 18.5 mph 18.5 mph 56 % 0.0 in 0.0 W/m2 CLR
22:51 17.6 °F 8.7 °F 1018.8 in WNW 18.5 mph 18.5 mph 56 % 0.0 in 0.0 W/m2 CLR
22:52 17.6 °F 8.7 °F 1018.8 in NW 18.5 mph 18.5 mph 56 % 0.0 in 0.0 W/m2 CLR
22:57 17.5 °F 8.9 °F 1019.2 in NNW 18.5 mph 18.5 mph 57 % 0.0 in 0.0 W/m2 CLR
23:02 17.5 °F 8.9 °F 1019.2 in NW 18.5 mph 18.5 mph 57 % 0.0 in 0.0 W/m2 CLR
23:04 17.5 °F 8.6 °F 1019.2 in NW 24.1 mph 24.1 mph 56 % 0.0 in 0.0 W/m2 CLR
23:07 17.4 °F 8.6 °F 1019.2 in NNW 18.5 mph 18.5 mph 56 % 0.0 in 0.0 W/m2 CLR
23:12 17.4 °F 8.3 °F 1019.5 in WNW 22.2 mph 22.2 mph 55 % 0.0 in 0.0 W/m2 CLR
23:17 17.3 °F 8.4 °F 1019.5 in NNW 18.5 mph 18.5 mph 56 % 0.0 in 0.0 W/m2 CLR
23:22 17.3 °F 8.2 °F 1019.5 in NW 22.5 mph 22.5 mph 55 % 0.0 in 0.0 W/m2 CLR
23:27 17.2 °F 8.3 °F 1019.5 in NW 24.1 mph 24.1 mph 56 % 0.0 in 0.0 W/m2 CLR
23:32 17.1 °F 8.3 °F 1019.5 in NW 19.3 mph 19.3 mph 56 % 0.0 in 0.0 W/m2 CLR
23:37 17.0 °F 8.2 °F 1019.5 in NW 18.5 mph 18.5 mph 56 % 0.0 in 0.0 W/m2 CLR
23:42 16.9 °F 8.4 °F 1019.5 in NW 16.7 mph 16.7 mph 57 % 0.0 in 0.0 W/m2 CLR
23:47 16.9 °F 8.3 °F 1019.5 in West 11.1 mph 11.1 mph 57 % 0.0 in 0.0 W/m2 CLR
23:52 16.8 °F 8.4 °F 1019.5 in WNW 11.3 mph 11.3 mph 58 % 0.0 in 0.0 W/m2 CLR
23:57 16.7 °F 8.7 °F 1019.5 in WNW 16.7 mph 16.7 mph 59 % 0.0 in 0.0 W/m2 CLR
Lo Temps de Massalio
Compliments of Weather Underground - 1.25 mb